sensor_id;sensor_type;location;lat;lon;timestamp;P1;durP1;ratioP1;P2;durP2;ratioP2
33421;SDS011;19763;55.798;37.782;2023-06-14T00:00:10;7.90;;;5.60;;
33421;SDS011;19763;55.798;37.782;2023-06-14T00:02:38;8.68;;;5.68;;
33421;SDS011;19763;55.798;37.782;2023-06-14T00:05:07;7.82;;;5.22;;
33421;SDS011;19763;55.798;37.782;2023-06-14T00:07:33;8.85;;;6.00;;
33421;SDS011;19763;55.798;37.782;2023-06-14T00:10:01;9.35;;;5.78;;
33421;SDS011;19763;55.798;37.782;2023-06-14T00:12:28;8.82;;;5.90;;
33421;SDS011;19763;55.798;37.782;2023-06-14T00:14:54;10.38;;;5.90;;
33421;SDS011;19763;55.798;37.782;2023-06-14T00:17:19;8.57;;;5.65;;
33421;SDS011;19763;55.798;37.782;2023-06-14T00:19:45;9.60;;;5.40;;
33421;SDS011;19763;55.798;37.782;2023-06-14T00:22:11;12.15;;;5.90;;
33421;SDS011;19763;55.798;37.782;2023-06-14T00:24:37;9.00;;;5.85;;
33421;SDS011;19763;55.798;37.782;2023-06-14T00:27:03;12.00;;;6.22;;
33421;SDS011;19763;55.798;37.782;2023-06-14T00:29:28;11.07;;;5.60;;
33421;SDS011;19763;55.798;37.782;2023-06-14T00:31:54;7.13;;;5.40;;
33421;SDS011;19763;55.798;37.782;2023-06-14T00:34:19;8.95;;;5.82;;
33421;SDS011;19763;55.798;37.782;2023-06-14T00:36:45;7.65;;;5.65;;
33421;SDS011;19763;55.798;37.782;2023-06-14T00:39:10;10.45;;;6.13;;
33421;SDS011;19763;55.798;37.782;2023-06-14T00:41:37;10.98;;;5.65;;
33421;SDS011;19763;55.798;37.782;2023-06-14T00:44:02;9.13;;;5.60;;
33421;SDS011;19763;55.798;37.782;2023-06-14T00:46:28;7.97;;;5.50;;
33421;SDS011;19763;55.798;37.782;2023-06-14T00:48:54;12.65;;;5.95;;
33421;SDS011;19763;55.798;37.782;2023-06-14T00:51:23;8.25;;;5.93;;
33421;SDS011;19763;55.798;37.782;2023-06-14T00:53:50;11.30;;;6.20;;
33421;SDS011;19763;55.798;37.782;2023-06-14T00:56:16;9.43;;;5.40;;
33421;SDS011;19763;55.798;37.782;2023-06-14T00:58:41;8.93;;;5.88;;
33421;SDS011;19763;55.798;37.782;2023-06-14T01:01:08;9.88;;;5.80;;
33421;SDS011;19763;55.798;37.782;2023-06-14T01:03:34;11.95;;;5.35;;
33421;SDS011;19763;55.798;37.782;2023-06-14T01:06:03;9.25;;;5.47;;
33421;SDS011;19763;55.798;37.782;2023-06-14T01:08:57;12.50;;;5.82;;
33421;SDS011;19763;55.798;37.782;2023-06-14T01:11:26;17.35;;;6.13;;
33421;SDS011;19763;55.798;37.782;2023-06-14T01:13:57;8.25;;;5.85;;
33421;SDS011;19763;55.798;37.782;2023-06-14T01:16:27;10.82;;;6.07;;
33421;SDS011;19763;55.798;37.782;2023-06-14T01:18:54;8.70;;;6.00;;
33421;SDS011;19763;55.798;37.782;2023-06-14T01:21:25;10.50;;;5.55;;
33421;SDS011;19763;55.798;37.782;2023-06-14T01:23:51;10.02;;;5.82;;
33421;SDS011;19763;55.798;37.782;2023-06-14T01:26:21;10.82;;;5.53;;
33421;SDS011;19763;55.798;37.782;2023-06-14T01:28:48;11.95;;;6.40;;
33421;SDS011;19763;55.798;37.782;2023-06-14T01:31:19;8.18;;;5.28;;
33421;SDS011;19763;55.798;37.782;2023-06-14T01:33:51;14.05;;;5.63;;
33421;SDS011;19763;55.798;37.782;2023-06-14T01:36:18;10.73;;;6.25;;
33421;SDS011;19763;55.798;37.782;2023-06-14T01:38:45;18.23;;;5.95;;
33421;SDS011;19763;55.798;37.782;2023-06-14T01:41:13;10.80;;;6.00;;
33421;SDS011;19763;55.798;37.782;2023-06-14T01:43:40;10.18;;;6.18;;
33421;SDS011;19763;55.798;37.782;2023-06-14T01:46:08;12.30;;;5.80;;
33421;SDS011;19763;55.798;37.782;2023-06-14T01:48:34;11.75;;;6.47;;
33421;SDS011;19763;55.798;37.782;2023-06-14T01:51:00;10.85;;;6.95;;
33421;SDS011;19763;55.798;37.782;2023-06-14T01:53:26;10.82;;;6.70;;
33421;SDS011;19763;55.798;37.782;2023-06-14T01:55:51;12.40;;;6.13;;
33421;SDS011;19763;55.798;37.782;2023-06-14T01:58:19;11.38;;;5.90;;
33421;SDS011;19763;55.798;37.782;2023-06-14T02:00:44;10.45;;;6.78;;
33421;SDS011;19763;55.798;37.782;2023-06-14T02:03:11;10.40;;;6.43;;
33421;SDS011;19763;55.798;37.782;2023-06-14T02:05:37;12.75;;;6.32;;
33421;SDS011;19763;55.798;37.782;2023-06-14T02:08:04;10.07;;;7.07;;
33421;SDS011;19763;55.798;37.782;2023-06-14T02:10:30;10.02;;;7.15;;
33421;SDS011;19763;55.798;37.782;2023-06-14T02:12:55;10.38;;;6.10;;
33421;SDS011;19763;55.798;37.782;2023-06-14T02:15:21;8.38;;;6.55;;
33421;SDS011;19763;55.798;37.782;2023-06-14T02:17:47;8.70;;;6.20;;
33421;SDS011;19763;55.798;37.782;2023-06-14T02:20:13;11.40;;;7.00;;
33421;SDS011;19763;55.798;37.782;2023-06-14T02:22:38;11.73;;;6.10;;
33421;SDS011;19763;55.798;37.782;2023-06-14T02:25:04;11.07;;;6.07;;
33421;SDS011;19763;55.798;37.782;2023-06-14T02:27:31;10.77;;;6.30;;
33421;SDS011;19763;55.798;37.782;2023-06-14T02:29:57;9.48;;;6.20;;
33421;SDS011;19763;55.798;37.782;2023-06-14T02:32:22;8.90;;;6.22;;
33421;SDS011;19763;55.798;37.782;2023-06-14T02:34:48;11.13;;;6.57;;
33421;SDS011;19763;55.798;37.782;2023-06-14T02:37:15;8.98;;;6.32;;
33421;SDS011;19763;55.798;37.782;2023-06-14T02:39:41;12.45;;;6.15;;
33421;SDS011;19763;55.798;37.782;2023-06-14T02:42:07;11.25;;;6.40;;
33421;SDS011;19763;55.798;37.782;2023-06-14T02:44:32;11.95;;;6.50;;
33421;SDS011;19763;55.798;37.782;2023-06-14T02:46:58;11.70;;;6.80;;
33421;SDS011;19763;55.798;37.782;2023-06-14T02:49:25;10.77;;;6.68;;
33421;SDS011;19763;55.798;37.782;2023-06-14T02:51:51;12.90;;;6.85;;
33421;SDS011;19763;55.798;37.782;2023-06-14T02:54:17;13.88;;;8.52;;
33421;SDS011;19763;55.798;37.782;2023-06-14T02:56:43;16.80;;;8.43;;
33421;SDS011;19763;55.798;37.782;2023-06-14T02:59:08;18.48;;;7.95;;
33421;SDS011;19763;55.798;37.782;2023-06-14T03:01:34;13.32;;;7.45;;
33421;SDS011;19763;55.798;37.782;2023-06-14T03:04:03;14.38;;;7.22;;
33421;SDS011;19763;55.798;37.782;2023-06-14T03:06:31;22.80;;;9.65;;
33421;SDS011;19763;55.798;37.782;2023-06-14T03:08:58;11.43;;;7.80;;
33421;SDS011;19763;55.798;37.782;2023-06-14T03:11:29;15.40;;;7.70;;
33421;SDS011;19763;55.798;37.782;2023-06-14T03:13:58;12.20;;;7.28;;
33421;SDS011;19763;55.798;37.782;2023-06-14T03:16:25;11.55;;;7.90;;
33421;SDS011;19763;55.798;37.782;2023-06-14T03:18:53;14.38;;;8.02;;
33421;SDS011;19763;55.798;37.782;2023-06-14T03:21:19;13.63;;;7.97;;
33421;SDS011;19763;55.798;37.782;2023-06-14T03:23:48;15.52;;;7.95;;
33421;SDS011;19763;55.798;37.782;2023-06-14T03:26:14;22.00;;;8.40;;
33421;SDS011;19763;55.798;37.782;2023-06-14T03:28:43;18.55;;;8.10;;
33421;SDS011;19763;55.798;37.782;2023-06-14T03:31:10;11.82;;;8.00;;
33421;SDS011;19763;55.798;37.782;2023-06-14T03:33:36;14.32;;;8.27;;
33421;SDS011;19763;55.798;37.782;2023-06-14T03:36:01;12.15;;;8.75;;
33421;SDS011;19763;55.798;37.782;2023-06-14T03:38:28;14.68;;;8.77;;
33421;SDS011;19763;55.798;37.782;2023-06-14T03:40:53;15.10;;;9.70;;
33421;SDS011;19763;55.798;37.782;2023-06-14T03:43:19;11.55;;;7.80;;
33421;SDS011;19763;55.798;37.782;2023-06-14T03:45:45;14.90;;;7.95;;
33421;SDS011;19763;55.798;37.782;2023-06-14T03:48:10;18.52;;;10.75;;
33421;SDS011;19763;55.798;37.782;2023-06-14T03:50:36;14.18;;;9.43;;
33421;SDS011;19763;55.798;37.782;2023-06-14T03:53:03;13.82;;;9.65;;
33421;SDS011;19763;55.798;37.782;2023-06-14T03:55:29;16.15;;;9.02;;
33421;SDS011;19763;55.798;37.782;2023-06-14T03:57:56;13.65;;;9.13;;
33421;SDS011;19763;55.798;37.782;2023-06-14T04:00:22;13.52;;;8.80;;
33421;SDS011;19763;55.798;37.782;2023-06-14T04:02:48;17.00;;;9.55;;
33421;SDS011;19763;55.798;37.782;2023-06-14T04:05:14;15.10;;;9.18;;
33421;SDS011;19763;55.798;37.782;2023-06-14T04:07:42;13.65;;;7.93;;
33421;SDS011;19763;55.798;37.782;2023-06-14T04:10:09;11.10;;;7.60;;
33421;SDS011;19763;55.798;37.782;2023-06-14T04:12:38;11.52;;;7.63;;
33421;SDS011;19763;55.798;37.782;2023-06-14T04:15:04;17.25;;;7.90;;
33421;SDS011;19763;55.798;37.782;2023-06-14T04:17:31;14.30;;;7.70;;
33421;SDS011;19763;55.798;37.782;2023-06-14T04:19:59;14.90;;;7.18;;
33421;SDS011;19763;55.798;37.782;2023-06-14T04:22:28;13.90;;;6.38;;
33421;SDS011;19763;55.798;37.782;2023-06-14T04:24:54;9.93;;;6.38;;
33421;SDS011;19763;55.798;37.782;2023-06-14T04:27:23;14.45;;;6.50;;
33421;SDS011;19763;55.798;37.782;2023-06-14T04:29:51;10.43;;;5.63;;
33421;SDS011;19763;55.798;37.782;2023-06-14T04:32:23;10.38;;;6.30;;
33421;SDS011;19763;55.798;37.782;2023-06-14T04:34:50;12.98;;;6.53;;
33421;SDS011;19763;55.798;37.782;2023-06-14T04:37:18;14.30;;;5.97;;
33421;SDS011;19763;55.798;37.782;2023-06-14T04:39:46;10.35;;;5.78;;
33421;SDS011;19763;55.798;37.782;2023-06-14T04:42:12;9.07;;;5.43;;
33421;SDS011;19763;55.798;37.782;2023-06-14T04:44:40;12.90;;;5.88;;
33421;SDS011;19763;55.798;37.782;2023-06-14T04:47:06;6.63;;;5.03;;
33421;SDS011;19763;55.798;37.782;2023-06-14T04:49:32;10.80;;;5.45;;
33421;SDS011;19763;55.798;37.782;2023-06-14T04:51:59;9.73;;;5.30;;
33421;SDS011;19763;55.798;37.782;2023-06-14T04:54:26;7.60;;;5.07;;
33421;SDS011;19763;55.798;37.782;2023-06-14T04:56:53;11.13;;;6.85;;
33421;SDS011;19763;55.798;37.782;2023-06-14T04:59:20;9.77;;;5.00;;
33421;SDS011;19763;55.798;37.782;2023-06-14T05:01:48;8.07;;;4.75;;
33421;SDS011;19763;55.798;37.782;2023-06-14T05:04:15;25.23;;;6.93;;
33421;SDS011;19763;55.798;37.782;2023-06-14T05:06:44;38.72;;;6.45;;
33421;SDS011;19763;55.798;37.782;2023-06-14T05:09:13;9.40;;;4.78;;
33421;SDS011;19763;55.798;37.782;2023-06-14T05:11:40;10.35;;;4.78;;
33421;SDS011;19763;55.798;37.782;2023-06-14T05:14:07;14.65;;;4.55;;
33421;SDS011;19763;55.798;37.782;2023-06-14T05:16:33;8.35;;;4.38;;
33421;SDS011;19763;55.798;37.782;2023-06-14T05:18:58;7.88;;;4.47;;
33421;SDS011;19763;55.798;37.782;2023-06-14T05:21:24;10.20;;;4.72;;
33421;SDS011;19763;55.798;37.782;2023-06-14T05:23:49;16.85;;;5.28;;
33421;SDS011;19763;55.798;37.782;2023-06-14T05:26:16;11.25;;;4.90;;
33421;SDS011;19763;55.798;37.782;2023-06-14T05:28:42;6.88;;;4.57;;
33421;SDS011;19763;55.798;37.782;2023-06-14T05:31:07;19.02;;;5.70;;
33421;SDS011;19763;55.798;37.782;2023-06-14T05:33:33;22.25;;;4.53;;
33421;SDS011;19763;55.798;37.782;2023-06-14T05:35:58;6.85;;;4.43;;
33421;SDS011;19763;55.798;37.782;2023-06-14T05:38:24;6.95;;;4.32;;
33421;SDS011;19763;55.798;37.782;2023-06-14T05:40:50;6.97;;;4.20;;
33421;SDS011;19763;55.798;37.782;2023-06-14T05:43:16;8.18;;;4.28;;
33421;SDS011;19763;55.798;37.782;2023-06-14T05:45:41;12.27;;;4.35;;
33421;SDS011;19763;55.798;37.782;2023-06-14T05:48:07;6.53;;;5.53;;
33421;SDS011;19763;55.798;37.782;2023-06-14T05:50:33;8.65;;;4.13;;
33421;SDS011;19763;55.798;37.782;2023-06-14T05:52:58;9.25;;;4.00;;
33421;SDS011;19763;55.798;37.782;2023-06-14T05:55:24;6.47;;;3.92;;
33421;SDS011;19763;55.798;37.782;2023-06-14T05:57:50;6.05;;;3.80;;
33421;SDS011;19763;55.798;37.782;2023-06-14T06:00:15;7.40;;;3.75;;
33421;SDS011;19763;55.798;37.782;2023-06-14T06:02:44;10.23;;;3.22;;
33421;SDS011;19763;55.798;37.782;2023-06-14T06:05:11;6.55;;;3.53;;
33421;SDS011;19763;55.798;37.782;2023-06-14T06:07:37;5.47;;;3.13;;
33421;SDS011;19763;55.798;37.782;2023-06-14T06:10:05;5.45;;;3.22;;
33421;SDS011;19763;55.798;37.782;2023-06-14T06:12:31;5.63;;;3.50;;
33421;SDS011;19763;55.798;37.782;2023-06-14T06:14:58;6.28;;;3.22;;
33421;SDS011;19763;55.798;37.782;2023-06-14T06:17:24;7.22;;;3.15;;
33421;SDS011;19763;55.798;37.782;2023-06-14T06:19:51;4.53;;;3.22;;
33421;SDS011;19763;55.798;37.782;2023-06-14T06:22:16;5.82;;;3.10;;
33421;SDS011;19763;55.798;37.782;2023-06-14T06:24:42;4.53;;;2.60;;
33421;SDS011;19763;55.798;37.782;2023-06-14T06:27:08;4.30;;;2.70;;
33421;SDS011;19763;55.798;37.782;2023-06-14T06:29:33;3.42;;;2.72;;
33421;SDS011;19763;55.798;37.782;2023-06-14T06:32:00;5.22;;;3.00;;
33421;SDS011;19763;55.798;37.782;2023-06-14T06:34:25;3.55;;;2.53;;
33421;SDS011;19763;55.798;37.782;2023-06-14T06:36:51;5.20;;;2.88;;
33421;SDS011;19763;55.798;37.782;2023-06-14T06:39:17;5.55;;;2.42;;
33421;SDS011;19763;55.798;37.782;2023-06-14T06:41:42;6.20;;;2.65;;
33421;SDS011;19763;55.798;37.782;2023-06-14T06:44:08;3.15;;;2.75;;
33421;SDS011;19763;55.798;37.782;2023-06-14T06:46:36;6.03;;;3.22;;
33421;SDS011;19763;55.798;37.782;2023-06-14T06:49:05;6.25;;;3.28;;
33421;SDS011;19763;55.798;37.782;2023-06-14T06:51:31;4.30;;;2.55;;
33421;SDS011;19763;55.798;37.782;2023-06-14T06:53:57;3.90;;;2.80;;
33421;SDS011;19763;55.798;37.782;2023-06-14T06:56:23;7.55;;;2.83;;
33421;SDS011;19763;55.798;37.782;2023-06-14T06:58:52;5.45;;;2.85;;
33421;SDS011;19763;55.798;37.782;2023-06-14T07:01:17;3.28;;;2.80;;
33421;SDS011;19763;55.798;37.782;2023-06-14T07:03:44;6.90;;;2.90;;
33421;SDS011;19763;55.798;37.782;2023-06-14T07:06:11;6.85;;;3.00;;
33421;SDS011;19763;55.798;37.782;2023-06-14T07:08:37;6.05;;;2.90;;
33421;SDS011;19763;55.798;37.782;2023-06-14T07:11:04;5.78;;;3.17;;
33421;SDS011;19763;55.798;37.782;2023-06-14T07:13:30;6.25;;;3.00;;
33421;SDS011;19763;55.798;37.782;2023-06-14T07:15:58;9.23;;;3.25;;
33421;SDS011;19763;55.798;37.782;2023-06-14T07:18:25;4.43;;;3.05;;
33421;SDS011;19763;55.798;37.782;2023-06-14T07:20:50;5.88;;;2.95;;
33421;SDS011;19763;55.798;37.782;2023-06-14T07:23:17;4.95;;;2.90;;
33421;SDS011;19763;55.798;37.782;2023-06-14T07:25:42;6.20;;;3.17;;
33421;SDS011;19763;55.798;37.782;2023-06-14T07:28:08;4.38;;;2.72;;
33421;SDS011;19763;55.798;37.782;2023-06-14T07:30:33;4.75;;;3.05;;
33421;SDS011;19763;55.798;37.782;2023-06-14T07:33:00;4.18;;;3.08;;
33421;SDS011;19763;55.798;37.782;2023-06-14T07:35:25;5.97;;;3.00;;
33421;SDS011;19763;55.798;37.782;2023-06-14T07:37:51;7.30;;;3.20;;
33421;SDS011;19763;55.798;37.782;2023-06-14T07:40:16;5.13;;;2.90;;
33421;SDS011;19763;55.798;37.782;2023-06-14T07:42:42;3.17;;;2.40;;
33421;SDS011;19763;55.798;37.782;2023-06-14T07:45:08;4.72;;;2.97;;
33421;SDS011;19763;55.798;37.782;2023-06-14T07:47:33;3.35;;;2.97;;
33421;SDS011;19763;55.798;37.782;2023-06-14T07:49:59;5.25;;;3.00;;
33421;SDS011;19763;55.798;37.782;2023-06-14T07:52:25;6.25;;;3.25;;
33421;SDS011;19763;55.798;37.782;2023-06-14T07:54:50;6.57;;;3.35;;
33421;SDS011;19763;55.798;37.782;2023-06-14T07:57:16;4.82;;;3.05;;
33421;SDS011;19763;55.798;37.782;2023-06-14T07:59:42;7.60;;;3.40;;
33421;SDS011;19763;55.798;37.782;2023-06-14T08:02:07;5.57;;;3.00;;
33421;SDS011;19763;55.798;37.782;2023-06-14T08:04:33;6.10;;;3.10;;
33421;SDS011;19763;55.798;37.782;2023-06-14T08:06:59;5.82;;;3.20;;
33421;SDS011;19763;55.798;37.782;2023-06-14T08:09:25;7.00;;;3.20;;
33421;SDS011;19763;55.798;37.782;2023-06-14T08:11:53;4.22;;;2.90;;
33421;SDS011;19763;55.798;37.782;2023-06-14T08:14:18;4.65;;;3.10;;
33421;SDS011;19763;55.798;37.782;2023-06-14T08:16:44;3.35;;;3.00;;
33421;SDS011;19763;55.798;37.782;2023-06-14T08:19:09;6.88;;;2.95;;
33421;SDS011;19763;55.798;37.782;2023-06-14T08:21:35;6.50;;;3.30;;
33421;SDS011;19763;55.798;37.782;2023-06-14T08:24:01;3.50;;;3.17;;
33421;SDS011;19763;55.798;37.782;2023-06-14T08:26:27;3.72;;;3.08;;
33421;SDS011;19763;55.798;37.782;2023-06-14T08:28:56;5.50;;;3.08;;
33421;SDS011;19763;55.798;37.782;2023-06-14T08:31:23;3.38;;;3.08;;
33421;SDS011;19763;55.798;37.782;2023-06-14T08:33:50;6.60;;;3.10;;
33421;SDS011;19763;55.798;37.782;2023-06-14T08:36:15;3.72;;;3.08;;
33421;SDS011;19763;55.798;37.782;2023-06-14T08:38:41;5.22;;;2.92;;
33421;SDS011;19763;55.798;37.782;2023-06-14T08:41:06;5.20;;;2.70;;
33421;SDS011;19763;55.798;37.782;2023-06-14T08:43:36;4.28;;;3.47;;
33421;SDS011;19763;55.798;37.782;2023-06-14T08:46:03;10.07;;;3.47;;
33421;SDS011;19763;55.798;37.782;2023-06-14T08:48:29;4.88;;;2.95;;
33421;SDS011;19763;55.798;37.782;2023-06-14T08:51:01;4.38;;;3.13;;
33421;SDS011;19763;55.798;37.782;2023-06-14T08:53:32;7.07;;;3.63;;
33421;SDS011;19763;55.798;37.782;2023-06-14T08:56:02;3.88;;;3.20;;
33421;SDS011;19763;55.798;37.782;2023-06-14T08:58:29;6.30;;;3.25;;
33421;SDS011;19763;55.798;37.782;2023-06-14T09:00:59;6.03;;;3.75;;
33421;SDS011;19763;55.798;37.782;2023-06-14T09:05:59;5.82;;;3.08;;
33421;SDS011;19763;55.798;37.782;2023-06-14T09:08:26;4.20;;;3.25;;
33421;SDS011;19763;55.798;37.782;2023-06-14T09:10:55;5.10;;;3.38;;
33421;SDS011;19763;55.798;37.782;2023-06-14T09:13:21;5.82;;;3.67;;
33421;SDS011;19763;55.798;37.782;2023-06-14T09:15:47;7.32;;;3.50;;
33421;SDS011;19763;55.798;37.782;2023-06-14T09:18:12;4.65;;;3.03;;
33421;SDS011;19763;55.798;37.782;2023-06-14T09:20:38;4.07;;;3.40;;
33421;SDS011;19763;55.798;37.782;2023-06-14T09:23:03;4.10;;;3.20;;
33421;SDS011;19763;55.798;37.782;2023-06-14T09:25:30;4.88;;;3.10;;
33421;SDS011;19763;55.798;37.782;2023-06-14T09:27:56;4.72;;;3.33;;
33421;SDS011;19763;55.798;37.782;2023-06-14T09:30:21;4.88;;;3.20;;
33421;SDS011;19763;55.798;37.782;2023-06-14T09:32:47;5.10;;;3.33;;
33421;SDS011;19763;55.798;37.782;2023-06-14T09:35:12;4.18;;;3.13;;
33421;SDS011;19763;55.798;37.782;2023-06-14T09:37:43;9.07;;;3.92;;
33421;SDS011;19763;55.798;37.782;2023-06-14T09:40:09;6.15;;;4.05;;
33421;SDS011;19763;55.798;37.782;2023-06-14T09:42:35;3.63;;;3.20;;
33421;SDS011;19763;55.798;37.782;2023-06-14T09:45:02;4.05;;;3.03;;
33421;SDS011;19763;55.798;37.782;2023-06-14T09:47:29;4.65;;;3.15;;
33421;SDS011;19763;55.798;37.782;2023-06-14T09:49:54;5.45;;;3.70;;
33421;SDS011;19763;55.798;37.782;2023-06-14T09:52:21;6.60;;;3.60;;
33421;SDS011;19763;55.798;37.782;2023-06-14T09:54:47;5.18;;;3.22;;
33421;SDS011;19763;55.798;37.782;2023-06-14T09:57:17;5.80;;;3.28;;
33421;SDS011;19763;55.798;37.782;2023-06-14T09:59:46;7.57;;;3.30;;
33421;SDS011;19763;55.798;37.782;2023-06-14T10:02:24;6.93;;;3.95;;
33421;SDS011;19763;55.798;37.782;2023-06-14T10:07:42;5.18;;;3.45;;
33421;SDS011;19763;55.798;37.782;2023-06-14T10:10:14;5.43;;;3.72;;
33421;SDS011;19763;55.798;37.782;2023-06-14T10:12:40;7.95;;;3.42;;
33421;SDS011;19763;55.798;37.782;2023-06-14T10:15:07;7.78;;;3.33;;
33421;SDS011;19763;55.798;37.782;2023-06-14T10:17:38;6.38;;;3.63;;
33421;SDS011;19763;55.798;37.782;2023-06-14T10:23:01;5.32;;;3.10;;
33421;SDS011;19763;55.798;37.782;2023-06-14T10:25:32;4.97;;;3.53;;
33421;SDS011;19763;55.798;37.782;2023-06-14T10:30:38;8.15;;;3.67;;
33421;SDS011;19763;55.798;37.782;2023-06-14T10:33:05;7.03;;;3.50;;
33421;SDS011;19763;55.798;37.782;2023-06-14T10:35:31;4.78;;;3.15;;
33421;SDS011;19763;55.798;37.782;2023-06-14T10:38:07;5.25;;;3.40;;
33421;SDS011;19763;55.798;37.782;2023-06-14T10:40:36;7.10;;;3.13;;
33421;SDS011;19763;55.798;37.782;2023-06-14T10:43:22;5.03;;;3.38;;
33421;SDS011;19763;55.798;37.782;2023-06-14T10:48:41;3.80;;;2.97;;
33421;SDS011;19763;55.798;37.782;2023-06-14T10:51:19;6.00;;;3.40;;
33421;SDS011;19763;55.798;37.782;2023-06-14T10:53:48;6.32;;;3.33;;
33421;SDS011;19763;55.798;37.782;2023-06-14T10:58:54;5.07;;;3.03;;
33421;SDS011;19763;55.798;37.782;2023-06-14T11:01:25;3.33;;;3.03;;
33421;SDS011;19763;55.798;37.782;2023-06-14T11:04:06;4.45;;;2.97;;
33421;SDS011;19763;55.798;37.782;2023-06-14T11:06:44;6.43;;;3.30;;
33421;SDS011;19763;55.798;37.782;2023-06-14T11:12:03;5.18;;;3.17;;
33421;SDS011;19763;55.798;37.782;2023-06-14T11:14:30;7.30;;;3.58;;
33421;SDS011;19763;55.798;37.782;2023-06-14T11:16:56;7.68;;;3.70;;
33421;SDS011;19763;55.798;37.782;2023-06-14T11:19:21;13.77;;;4.22;;
33421;SDS011;19763;55.798;37.782;2023-06-14T11:21:48;7.40;;;3.13;;
33421;SDS011;19763;55.798;37.782;2023-06-14T11:24:13;4.18;;;3.33;;
33421;SDS011;19763;55.798;37.782;2023-06-14T11:26:39;6.97;;;3.58;;
33421;SDS011;19763;55.798;37.782;2023-06-14T11:29:05;8.68;;;3.70;;
33421;SDS011;19763;55.798;37.782;2023-06-14T11:31:31;5.63;;;3.72;;
33421;SDS011;19763;55.798;37.782;2023-06-14T11:33:57;3.92;;;3.25;;
33421;SDS011;19763;55.798;37.782;2023-06-14T11:36:31;6.15;;;3.28;;
33421;SDS011;19763;55.798;37.782;2023-06-14T11:39:05;6.75;;;3.85;;
33421;SDS011;19763;55.798;37.782;2023-06-14T11:41:39;6.47;;;2.88;;
33421;SDS011;19763;55.798;37.782;2023-06-14T11:44:07;5.22;;;3.13;;
33421;SDS011;19763;55.798;37.782;2023-06-14T11:46:33;6.18;;;3.20;;
33421;SDS011;19763;55.798;37.782;2023-06-14T11:48:59;4.28;;;3.05;;
33421;SDS011;19763;55.798;37.782;2023-06-14T11:51:28;6.03;;;3.30;;
33421;SDS011;19763;55.798;37.782;2023-06-14T11:53:55;6.47;;;3.13;;
33421;SDS011;19763;55.798;37.782;2023-06-14T11:56:21;3.70;;;3.00;;
33421;SDS011;19763;55.798;37.782;2023-06-14T11:58:46;4.18;;;3.42;;
33421;SDS011;19763;55.798;37.782;2023-06-14T12:01:21;5.05;;;3.00;;
33421;SDS011;19763;55.798;37.782;2023-06-14T12:03:50;4.70;;;3.15;;
33421;SDS011;19763;55.798;37.782;2023-06-14T12:06:25;5.93;;;3.13;;
33421;SDS011;19763;55.798;37.782;2023-06-14T12:08:58;4.50;;;3.05;;
33421;SDS011;19763;55.798;37.782;2023-06-14T12:11:23;5.85;;;3.50;;
33421;SDS011;19763;55.798;37.782;2023-06-14T12:13:53;6.88;;;4.10;;
33421;SDS011;19763;55.798;37.782;2023-06-14T12:16:18;4.57;;;3.10;;
33421;SDS011;19763;55.798;37.782;2023-06-14T12:18:44;5.20;;;3.20;;
33421;SDS011;19763;55.798;37.782;2023-06-14T12:21:10;5.13;;;2.60;;
33421;SDS011;19763;55.798;37.782;2023-06-14T12:23:49;5.85;;;3.50;;
33421;SDS011;19763;55.798;37.782;2023-06-14T12:26:16;4.25;;;3.15;;
33421;SDS011;19763;55.798;37.782;2023-06-14T12:28:46;4.07;;;3.35;;
33421;SDS011;19763;55.798;37.782;2023-06-14T12:31:13;4.07;;;3.17;;
33421;SDS011;19763;55.798;37.782;2023-06-14T12:33:41;7.38;;;2.78;;
33421;SDS011;19763;55.798;37.782;2023-06-14T12:36:08;6.85;;;3.38;;
33421;SDS011;19763;55.798;37.782;2023-06-14T12:38:34;3.95;;;3.53;;
33421;SDS011;19763;55.798;37.782;2023-06-14T12:41:01;5.32;;;3.58;;
33421;SDS011;19763;55.798;37.782;2023-06-14T12:43:26;3.50;;;3.03;;
33421;SDS011;19763;55.798;37.782;2023-06-14T12:45:52;5.57;;;3.35;;
33421;SDS011;19763;55.798;37.782;2023-06-14T12:48:18;3.97;;;3.20;;
33421;SDS011;19763;55.798;37.782;2023-06-14T12:50:44;3.63;;;3.13;;
33421;SDS011;19763;55.798;37.782;2023-06-14T12:53:10;3.13;;;2.65;;
33421;SDS011;19763;55.798;37.782;2023-06-14T12:55:36;4.10;;;3.15;;
33421;SDS011;19763;55.798;37.782;2023-06-14T12:58:01;6.05;;;3.13;;
33421;SDS011;19763;55.798;37.782;2023-06-14T13:00:27;4.10;;;3.47;;
33421;SDS011;19763;55.798;37.782;2023-06-14T13:02:55;3.75;;;3.38;;
33421;SDS011;19763;55.798;37.782;2023-06-14T13:05:20;4.85;;;3.28;;
33421;SDS011;19763;55.798;37.782;2023-06-14T13:07:46;6.75;;;3.30;;
33421;SDS011;19763;55.798;37.782;2023-06-14T13:10:11;3.45;;;3.15;;
33421;SDS011;19763;55.798;37.782;2023-06-14T13:12:37;5.10;;;3.20;;
33421;SDS011;19763;55.798;37.782;2023-06-14T13:15:02;7.28;;;4.32;;
33421;SDS011;19763;55.798;37.782;2023-06-14T13:17:29;7.03;;;3.65;;
33421;SDS011;19763;55.798;37.782;2023-06-14T13:19:54;5.95;;;3.30;;
33421;SDS011;19763;55.798;37.782;2023-06-14T13:22:20;4.60;;;3.70;;
33421;SDS011;19763;55.798;37.782;2023-06-14T13:24:46;3.85;;;2.78;;
33421;SDS011;19763;55.798;37.782;2023-06-14T13:27:11;4.90;;;3.30;;
33421;SDS011;19763;55.798;37.782;2023-06-14T13:29:39;3.33;;;3.03;;
33421;SDS011;19763;55.798;37.782;2023-06-14T13:32:05;3.60;;;2.75;;
33421;SDS011;19763;55.798;37.782;2023-06-14T13:34:31;12.57;;;7.80;;
33421;SDS011;19763;55.798;37.782;2023-06-14T13:36:56;6.85;;;3.67;;
33421;SDS011;19763;55.798;37.782;2023-06-14T13:39:24;5.70;;;3.28;;
33421;SDS011;19763;55.798;37.782;2023-06-14T13:41:50;3.47;;;3.17;;
33421;SDS011;19763;55.798;37.782;2023-06-14T13:44:15;6.03;;;2.75;;
33421;SDS011;19763;55.798;37.782;2023-06-14T13:46:44;4.10;;;3.05;;
33421;SDS011;19763;55.798;37.782;2023-06-14T13:49:09;3.20;;;2.85;;
33421;SDS011;19763;55.798;37.782;2023-06-14T13:51:35;5.55;;;2.88;;
33421;SDS011;19763;55.798;37.782;2023-06-14T13:54:01;4.43;;;3.20;;
33421;SDS011;19763;55.798;37.782;2023-06-14T13:56:27;3.53;;;3.13;;
33421;SDS011;19763;55.798;37.782;2023-06-14T13:58:52;4.50;;;2.83;;
33421;SDS011;19763;55.798;37.782;2023-06-14T14:01:18;3.90;;;3.38;;
33421;SDS011;19763;55.798;37.782;2023-06-14T14:03:48;4.88;;;4.38;;
33421;SDS011;19763;55.798;37.782;2023-06-14T14:06:14;4.63;;;2.95;;
33421;SDS011;19763;55.798;37.782;2023-06-14T14:08:41;6.07;;;3.00;;
33421;SDS011;19763;55.798;37.782;2023-06-14T14:11:07;4.85;;;3.28;;
33421;SDS011;19763;55.798;37.782;2023-06-14T14:13:34;5.45;;;4.05;;
33421;SDS011;19763;55.798;37.782;2023-06-14T14:16:01;4.40;;;3.30;;
33421;SDS011;19763;55.798;37.782;2023-06-14T14:18:27;3.67;;;2.60;;
33421;SDS011;19763;55.798;37.782;2023-06-14T14:20:53;3.45;;;3.13;;
33421;SDS011;19763;55.798;37.782;2023-06-14T14:23:18;7.00;;;2.90;;
33421;SDS011;19763;55.798;37.782;2023-06-14T14:25:45;10.48;;;3.72;;
33421;SDS011;19763;55.798;37.782;2023-06-14T14:28:11;4.82;;;2.88;;
33421;SDS011;19763;55.798;37.782;2023-06-14T14:30:38;4.75;;;3.05;;
33421;SDS011;19763;55.798;37.782;2023-06-14T14:33:05;6.88;;;3.10;;
33421;SDS011;19763;55.798;37.782;2023-06-14T14:35:32;5.72;;;2.95;;
33421;SDS011;19763;55.798;37.782;2023-06-14T14:37:57;7.45;;;3.33;;
33421;SDS011;19763;55.798;37.782;2023-06-14T14:40:23;3.25;;;2.95;;
33421;SDS011;19763;55.798;37.782;2023-06-14T14:42:49;4.88;;;3.33;;
33421;SDS011;19763;55.798;37.782;2023-06-14T14:45:14;6.05;;;3.30;;
33421;SDS011;19763;55.798;37.782;2023-06-14T14:47:40;5.03;;;3.15;;